投稿到民航资源网

外航一周空中运行事件综述(11.2-11.8)

 2015-11-09 来源:民航资源网 作者:罗石  [投稿排行榜]
2015-11-09 17:26:30

我来说两句(0) 分享

外航一周空中运行事件综述(11.2-11.8)

  图:巴基斯坦沙欣航空公司波音737-400飞机在拉合尔36左跑道着陆时,机腹着地,起落架损坏并分离。

      本综述尽可能收集国外航空公司一周空中运行事件,并根据已有信息对事件综述,供各位民航工作者参考借鉴。

      11月2日

      挪威航空快线航空公司注册号LN-NGF的波音737-800飞机(机龄3.1年),执行从伦敦盖特威克机场到哥本哈根(丹麦)的D8-2514航班。飞机从盖特威克机场离场爬升通过36000英尺高度时,机组决定备降阿姆斯特丹(荷兰)并报告机尾厨房出现烟雾。飞机停止爬升约16分钟后在阿姆斯特丹06号跑道安全着陆。机组报告烟雾已经消失并滑行至停机坪。

      飞机在地面停留后再次起飞,延误7.5小时后到达哥本哈根。

      标签:飞机烟雾

      哥伦比亚航空公司注册号HK-4553的空客A319-100飞机(机龄7.6年),执行从哈瓦那(古巴)到波哥大(哥伦比亚)的AV-255航班。飞机在卡塔赫纳(哥伦比亚)北部约200海里,高度37000英尺时,右发动机开始振动并产生越来越大的噪音。机组关闭发动机并备降卡塔赫纳,随后安全着陆。

      标签:机械故障

      达美航空公司注册号N1605的波音767-300飞机(机龄16.5年),执行从纽约肯尼迪机场到布鲁塞尔(比利时)的DL-42航班。飞机在肯尼迪22右跑道加速起飞时,机组中断起飞并从H滑行道脱离跑道。飞机在地面停留后再次起飞,延误2.5小时后到达布鲁塞尔。

      标签:机械故障

      11月3日

      巴基斯坦沙欣航空公司注册号AP-BJO的波音737-400飞机(机龄22.9年),执行从卡拉奇到拉合尔(巴基斯坦)的NL-142航班。当地时间09:30(世界协调时04:30)飞机在拉合尔36左跑道着陆时,机腹着地,飞机停在跑道左侧的草地上,起落架损坏并分离。有10人收到轻伤,飞机严重受损。

      天气报文显示当日拉合尔机场有烟,能见度并不理想。

      OPLA 030455Z 00000KT 2000 FU SCT100 23/16 Q1018 BECMG 3000

      OPLA 030425Z 00000KT 1500 FU SCT100 22/16 Q1018

      标签:冲出跑道

      匈牙利维兹航空公司(Wizz Air)注册号HA-LWS的空客A320-200飞机(机龄2.6年),执行从特拉维夫(以色列)到布达佩斯(匈牙利)的W6-2458航班。飞机在本古里安机场12号跑道加速起飞时,两辆卡车进入跑道。机组在高速阶段(105节)中断起飞并安全减速。应急服务部门检查刹车系统后飞机滑行至停机坪。

      标签:跑道入侵

      美国航空公司注册号N174AA的波音757-200飞机(机龄13.8年),执行从萨尔瓦多(巴西)到迈阿密(美国)的AA-230航班。飞机在加勒比海上空38000英尺高度时遭遇乱流,造成1名乘客和2名乘务员受伤。机组驾驶飞机下降至36000英尺高度后继续飞往迈阿密,大约2小时45分钟后飞机安全着陆。

      标签:飞机乱流

      11月4日

      布鲁塞尔航空公司注册号OO-SSU的空客A319-100飞机(机龄11.6年),执行从布鲁塞尔(比利时)到威尼斯(意大利)的SN-3201航班。飞机从布鲁塞尔25右跑道离场爬升时,左发动机失速,迫使机组在8000英尺高度改平,关闭发动机后返航布鲁塞尔,离场约45分钟后飞机在25右爬升安全着陆。

      航班换飞机执行,延误3小时后等待威尼斯。

      标签:机械故障

      11月5日

      日本J-Air航空公司注册号JA202J的CRJ-200飞机,执行从札幌到女满别机场(日本)的JL-2713航班。飞机在女满别机场进近距离接地地带约2海里时,塔台发现一辆驱鸟车进入跑道,但无法通知其离开跑道,只能指挥CRJ复飞。飞机复飞后执行另一条进近程序,最终安全着陆。

      标签:跑道入侵

      尼日利亚Med-view航空公司注册号5N-MAB的波音737-400飞机(机龄18年),执行从拉各斯到阿布贾(尼日利亚)的VL-2100航班。飞机从拉各斯离场爬升通过8000英尺高度时,由于空调系统故障,机组决定停止爬升并返航拉各斯。离场约25分钟后飞机安全着陆。

      标签:空调故障

      11月6日

      印尼巴泽航空公司(Batik Air)注册号PK-LBO的波音737-900飞机(机龄2.5年),执行从雅加达到日惹(印度尼西亚)的ID-6380航班。飞机在日惹09号跑道着陆时冲出跑道末端,前起落架坍塌。乘客安全撤离,无人受伤,飞机受损严重。

      标签:冲出跑道

      美国航空公司注册号N703UW的空客A319-100飞机(机龄17.1年),执行从费城到夏洛特(美国)的AA-1864航班。飞机从费城27左跑道离场爬升时,机组报告滑油温度过高并关闭一台发动机。随后飞机返航费城,离场约20分钟后在27左跑道安全着陆,并滑行至停机坪。

      航班换飞机执行,延误5小时45分钟后到达夏洛特。

      标签:机械故障

      11月7日

      德国汉莎航空公司注册号D-AILY的空客A319-100飞机(机龄17.3年),执行从莫斯科多莫杰多沃机场(俄罗斯)到慕尼黑(德国)的LH-2531航班。飞机在慕尼黑26右跑道进近时,机组请求准备拖车,并报告由于前起落架转向故障可能无法脱离跑道。飞机安全着陆后机组报告起落架转向恢复并滑行至停机坪。

      标签:起落架故障

      11月8日

      瑞士雪绒花航空公司(Edelweiss Air)注册号HB-JHQ的空客A330-300飞机(机龄4.8年),执行从苏黎世(瑞士)到马累(马尔代夫)的WK-66航班。飞机在马累下降时机组报告液压泄漏飞机需要停在跑道上,并请求应急车辆待命。随后飞机在马累安全着陆并停在跑道上,飞机被拖走,跑道由于需要清理关闭约1小时。

      后续航班被取消。

      标签:液压泄漏

    1荐闻榜

    更多文章和观点请访问罗石专题

    发表评论
    发表请先 登陆/注册

    严禁发布攻击他人、言语粗俗、涉及政治等违反规定的言论,违者法办!